sensor_id;sensor_type;location;lat;lon;timestamp;pressure;altitude;pressure_sealevel;temperature;humidity
14204;BME280;7185;51.854;6.622;2023-07-20T00:00:35;101048.00;;;22.16;72.84
14204;BME280;7185;51.854;6.622;2023-07-20T00:03:11;101055.75;;;22.35;72.44
14204;BME280;7185;51.854;6.622;2023-07-20T00:05:48;101051.72;;;22.44;72.39
14204;BME280;7185;51.854;6.622;2023-07-20T00:08:20;101054.97;;;22.49;72.15
14204;BME280;7185;51.854;6.622;2023-07-20T00:10:54;101049.13;;;22.42;71.85
14204;BME280;7185;51.854;6.622;2023-07-20T00:13:26;101046.44;;;22.42;71.72
14204;BME280;7185;51.854;6.622;2023-07-20T00:15:58;101044.50;;;22.30;71.91
14204;BME280;7185;51.854;6.622;2023-07-20T00:18:30;101046.66;;;22.39;71.78
14204;BME280;7185;51.854;6.622;2023-07-20T00:21:03;101045.84;;;22.37;72.07
14204;BME280;7185;51.854;6.622;2023-07-20T00:23:35;101047.22;;;22.44;71.53
14204;BME280;7185;51.854;6.622;2023-07-20T00:26:07;101040.66;;;22.50;70.98
14204;BME280;7185;51.854;6.622;2023-07-20T00:28:38;101045.13;;;22.50;70.82
14204;BME280;7185;51.854;6.622;2023-07-20T00:31:10;101050.94;;;22.42;71.62
14204;BME280;7185;51.854;6.622;2023-07-20T00:33:42;101037.59;;;22.42;72.06
14204;BME280;7185;51.854;6.622;2023-07-20T00:36:15;101046.69;;;22.38;72.59
14204;BME280;7185;51.854;6.622;2023-07-20T00:38:47;101038.06;;;22.18;72.57
14204;BME280;7185;51.854;6.622;2023-07-20T00:41:19;101043.38;;;22.04;73.50
14204;BME280;7185;51.854;6.622;2023-07-20T00:43:51;101040.88;;;21.86;74.69
14204;BME280;7185;51.854;6.622;2023-07-20T00:46:23;101044.91;;;21.93;74.87
14204;BME280;7185;51.854;6.622;2023-07-20T00:48:55;101037.50;;;22.13;73.48
14204;BME280;7185;51.854;6.622;2023-07-20T00:51:29;101037.69;;;22.10;73.32
14204;BME280;7185;51.854;6.622;2023-07-20T00:54:01;101040.66;;;22.05;73.54
14204;BME280;7185;51.854;6.622;2023-07-20T00:56:33;101038.19;;;22.17;73.20
14204;BME280;7185;51.854;6.622;2023-07-20T00:59:05;101039.44;;;22.25;72.70
14204;BME280;7185;51.854;6.622;2023-07-20T01:01:37;101038.75;;;22.22;72.98
14204;BME280;7185;51.854;6.622;2023-07-20T01:04:09;101043.66;;;22.29;72.21
14204;BME280;7185;51.854;6.622;2023-07-20T01:06:47;101042.88;;;22.27;72.96
14204;BME280;7185;51.854;6.622;2023-07-20T01:09:26;101045.78;;;22.08;72.78
14204;BME280;7185;51.854;6.622;2023-07-20T01:12:03;101048.34;;;22.10;73.76
14204;BME280;7185;51.854;6.622;2023-07-20T01:14:36;101041.72;;;22.32;72.47
14204;BME280;7185;51.854;6.622;2023-07-20T01:17:09;101046.09;;;22.18;72.67
14204;BME280;7185;51.854;6.622;2023-07-20T01:19:40;101053.53;;;22.13;72.51
14204;BME280;7185;51.854;6.622;2023-07-20T01:22:25;101049.69;;;22.03;73.12
14204;BME280;7185;51.854;6.622;2023-07-20T01:25:32;101057.50;;;22.06;73.44
14204;BME280;7185;51.854;6.622;2023-07-20T01:28:29;101050.66;;;22.02;73.55
14204;BME280;7185;51.854;6.622;2023-07-20T01:31:16;101059.28;;;22.21;73.31
14204;BME280;7185;51.854;6.622;2023-07-20T01:33:48;101051.63;;;22.15;73.15
14204;BME280;7185;51.854;6.622;2023-07-20T01:36:25;101061.75;;;21.63;75.49
14204;BME280;7185;51.854;6.622;2023-07-20T01:38:58;101061.06;;;21.60;75.83
14204;BME280;7185;51.854;6.622;2023-07-20T01:41:30;101047.38;;;21.50;76.00
14204;BME280;7185;51.854;6.622;2023-07-20T01:44:03;101051.56;;;21.54;76.20
14204;BME280;7185;51.854;6.622;2023-07-20T01:46:37;101052.63;;;21.36;76.50
14204;BME280;7185;51.854;6.622;2023-07-20T01:49:09;101054.50;;;21.17;76.08
14204;BME280;7185;51.854;6.622;2023-07-20T01:51:40;101057.25;;;21.32;75.90
14204;BME280;7185;51.854;6.622;2023-07-20T01:54:12;101052.53;;;21.21;76.38
14204;BME280;7185;51.854;6.622;2023-07-20T01:56:44;101056.84;;;21.08;76.62
14204;BME280;7185;51.854;6.622;2023-07-20T01:59:15;101064.31;;;21.33;75.50
14204;BME280;7185;51.854;6.622;2023-07-20T02:01:49;101053.81;;;21.14;75.73
14204;BME280;7185;51.854;6.622;2023-07-20T02:04:20;101054.16;;;21.24;75.05
14204;BME280;7185;51.854;6.622;2023-07-20T02:06:52;101060.19;;;21.11;75.04
14204;BME280;7185;51.854;6.622;2023-07-20T02:09:24;101061.91;;;20.96;75.20
14204;BME280;7185;51.854;6.622;2023-07-20T02:11:56;101057.97;;;21.04;75.28
14204;BME280;7185;51.854;6.622;2023-07-20T02:14:28;101056.03;;;20.90;75.79
14204;BME280;7185;51.854;6.622;2023-07-20T02:17:01;101052.09;;;21.13;75.50
14204;BME280;7185;51.854;6.622;2023-07-20T02:19:33;101052.97;;;21.13;74.77
14204;BME280;7185;51.854;6.622;2023-07-20T02:22:04;101058.91;;;21.02;74.84
14204;BME280;7185;51.854;6.622;2023-07-20T02:24:36;101061.91;;;20.96;74.98
14204;BME280;7185;51.854;6.622;2023-07-20T02:27:08;101065.31;;;20.98;75.39
14204;BME280;7185;51.854;6.622;2023-07-20T02:29:40;101061.56;;;21.02;74.22
14204;BME280;7185;51.854;6.622;2023-07-20T02:32:14;101064.22;;;21.02;74.90
14204;BME280;7185;51.854;6.622;2023-07-20T02:34:45;101065.97;;;21.04;74.41
14204;BME280;7185;51.854;6.622;2023-07-20T02:37:17;101061.63;;;21.01;74.50
14204;BME280;7185;51.854;6.622;2023-07-20T02:39:49;101063.78;;;21.10;74.32
14204;BME280;7185;51.854;6.622;2023-07-20T02:42:21;101073.75;;;21.07;74.36
14204;BME280;7185;51.854;6.622;2023-07-20T02:44:56;101072.97;;;21.05;74.52
14204;BME280;7185;51.854;6.622;2023-07-20T02:47:30;101077.97;;;20.95;75.67
14204;BME280;7185;51.854;6.622;2023-07-20T02:50:02;101086.50;;;21.01;76.34
14204;BME280;7185;51.854;6.622;2023-07-20T02:52:34;101081.16;;;21.01;76.64
14204;BME280;7185;51.854;6.622;2023-07-20T02:55:07;101085.78;;;20.82;77.01
14204;BME280;7185;51.854;6.622;2023-07-20T02:57:39;101086.16;;;20.74;77.34
14204;BME280;7185;51.854;6.622;2023-07-20T03:00:12;101084.47;;;20.56;78.30
14204;BME280;7185;51.854;6.622;2023-07-20T03:02:47;101085.94;;;20.79;77.42
14204;BME280;7185;51.854;6.622;2023-07-20T03:05:19;101087.81;;;20.77;75.12
14204;BME280;7185;51.854;6.622;2023-07-20T03:07:51;101087.16;;;20.72;76.58
14204;BME280;7185;51.854;6.622;2023-07-20T03:10:23;101097.75;;;20.73;76.30
14204;BME280;7185;51.854;6.622;2023-07-20T03:12:54;101095.75;;;20.78;75.68
14204;BME280;7185;51.854;6.622;2023-07-20T03:15:26;101094.53;;;20.84;75.03
14204;BME280;7185;51.854;6.622;2023-07-20T03:18:01;101101.50;;;20.86;74.88
14204;BME280;7185;51.854;6.622;2023-07-20T03:20:35;101105.22;;;20.66;75.40
14204;BME280;7185;51.854;6.622;2023-07-20T03:23:07;101102.88;;;20.60;75.69
14204;BME280;7185;51.854;6.622;2023-07-20T03:25:39;101103.66;;;20.45;76.48
14204;BME280;7185;51.854;6.622;2023-07-20T03:28:11;101107.59;;;20.37;76.95
14204;BME280;7185;51.854;6.622;2023-07-20T03:30:44;101103.28;;;20.35;77.05
14204;BME280;7185;51.854;6.622;2023-07-20T03:33:18;101102.03;;;20.42;77.35
14204;BME280;7185;51.854;6.622;2023-07-20T03:35:50;101098.09;;;20.32;77.21
14204;BME280;7185;51.854;6.622;2023-07-20T03:38:26;101097.09;;;20.17;76.87
14204;BME280;7185;51.854;6.622;2023-07-20T03:40:59;101098.34;;;20.10;77.21
14204;BME280;7185;51.854;6.622;2023-07-20T03:43:31;101099.34;;;20.07;77.69
14204;BME280;7185;51.854;6.622;2023-07-20T03:46:02;101099.34;;;20.07;77.41
14204;BME280;7185;51.854;6.622;2023-07-20T03:48:40;101104.50;;;20.10;76.52
14204;BME280;7185;51.854;6.622;2023-07-20T03:51:12;101118.47;;;20.15;76.15
14204;BME280;7185;51.854;6.622;2023-07-20T03:53:45;101124.38;;;20.03;75.93
14204;BME280;7185;51.854;6.622;2023-07-20T03:56:17;101125.16;;;19.87;77.74
14204;BME280;7185;51.854;6.622;2023-07-20T03:58:49;101127.13;;;19.82;77.87
14204;BME280;7185;51.854;6.622;2023-07-20T04:01:20;101122.84;;;19.99;77.81
14204;BME280;7185;51.854;6.622;2023-07-20T04:03:56;101130.53;;;19.86;78.20
14204;BME280;7185;51.854;6.622;2023-07-20T04:06:28;101130.03;;;19.78;78.89
14204;BME280;7185;51.854;6.622;2023-07-20T04:08:59;101124.56;;;19.81;78.72
14204;BME280;7185;51.854;6.622;2023-07-20T04:11:31;101127.22;;;19.81;78.77
14204;BME280;7185;51.854;6.622;2023-07-20T04:14:04;101129.63;;;19.87;78.56
14204;BME280;7185;51.854;6.622;2023-07-20T04:16:36;101126.59;;;19.75;79.00
14204;BME280;7185;51.854;6.622;2023-07-20T04:19:09;101131.41;;;19.67;78.80
14204;BME280;7185;51.854;6.622;2023-07-20T04:21:41;101127.53;;;19.74;78.18
14204;BME280;7185;51.854;6.622;2023-07-20T04:24:13;101136.44;;;19.73;78.30
14204;BME280;7185;51.854;6.622;2023-07-20T04:26:45;101134.28;;;19.82;78.43
14204;BME280;7185;51.854;6.622;2023-07-20T04:29:17;101144.13;;;19.99;77.42
14204;BME280;7185;51.854;6.622;2023-07-20T04:31:49;101142.47;;;19.96;77.48
14204;BME280;7185;51.854;6.622;2023-07-20T04:34:22;101134.03;;;20.05;76.80
14204;BME280;7185;51.854;6.622;2023-07-20T04:36:54;101149.72;;;20.12;76.88
14204;BME280;7185;51.854;6.622;2023-07-20T04:39:26;101150.56;;;20.12;77.28
14204;BME280;7185;51.854;6.622;2023-07-20T04:41:58;101150.34;;;20.17;76.47
14204;BME280;7185;51.854;6.622;2023-07-20T04:44:41;101153.63;;;20.04;76.34
14204;BME280;7185;51.854;6.622;2023-07-20T04:47:23;101157.03;;;20.06;75.46
14204;BME280;7185;51.854;6.622;2023-07-20T04:50:18;101159.38;;;19.95;76.20
14204;BME280;7185;51.854;6.622;2023-07-20T04:52:51;101157.63;;;20.13;75.96
14204;BME280;7185;51.854;6.622;2023-07-20T04:55:29;101150.59;;;19.93;76.00
14204;BME280;7185;51.854;6.622;2023-07-20T04:58:03;101161.88;;;19.98;76.32
14204;BME280;7185;51.854;6.622;2023-07-20T05:00:53;101153.13;;;20.14;75.39
14204;BME280;7185;51.854;6.622;2023-07-20T05:03:25;101156.19;;;20.06;76.24
14204;BME280;7185;51.854;6.622;2023-07-20T05:05:59;101155.41;;;20.04;76.61
14204;BME280;7185;51.854;6.622;2023-07-20T05:08:31;101149.41;;;20.18;76.95
14204;BME280;7185;51.854;6.622;2023-07-20T05:11:03;101147.66;;;20.17;76.65
14204;BME280;7185;51.854;6.622;2023-07-20T05:13:35;101155.03;;;20.12;75.87
14204;BME280;7185;51.854;6.622;2023-07-20T05:16:07;101151.28;;;20.16;76.89
14204;BME280;7185;51.854;6.622;2023-07-20T05:18:38;101154.34;;;20.43;75.25
14204;BME280;7185;51.854;6.622;2023-07-20T05:21:13;101158.41;;;20.33;74.03
14204;BME280;7185;51.854;6.622;2023-07-20T05:23:45;101159.28;;;20.51;74.18
14204;BME280;7185;51.854;6.622;2023-07-20T05:26:16;101158.81;;;20.43;74.12
14204;BME280;7185;51.854;6.622;2023-07-20T05:28:48;101161.00;;;20.52;73.65
14204;BME280;7185;51.854;6.622;2023-07-20T05:31:20;101167.41;;;20.65;73.33
14204;BME280;7185;51.854;6.622;2023-07-20T05:33:52;101163.06;;;20.82;72.85
14204;BME280;7185;51.854;6.622;2023-07-20T05:36:25;101169.09;;;20.85;72.31
14204;BME280;7185;51.854;6.622;2023-07-20T05:38:57;101167.50;;;20.81;72.46
14204;BME280;7185;51.854;6.622;2023-07-20T05:41:32;101169.94;;;20.68;73.20
14204;BME280;7185;51.854;6.622;2023-07-20T05:44:04;101180.25;;;21.10;71.58
14204;BME280;7185;51.854;6.622;2023-07-20T05:46:35;101175.56;;;21.47;70.42
14204;BME280;7185;51.854;6.622;2023-07-20T05:49:07;101188.31;;;21.42;70.76
14204;BME280;7185;51.854;6.622;2023-07-20T05:51:40;101185.50;;;21.45;69.90
14204;BME280;7185;51.854;6.622;2023-07-20T05:54:12;101186.88;;;21.52;69.51
14204;BME280;7185;51.854;6.622;2023-07-20T05:56:45;101182.09;;;21.91;68.21
14204;BME280;7185;51.854;6.622;2023-07-20T05:59:20;101182.41;;;22.01;68.18
14204;BME280;7185;51.854;6.622;2023-07-20T06:01:55;101175.00;;;22.06;67.62
14204;BME280;7185;51.854;6.622;2023-07-20T06:04:30;101179.19;;;22.10;67.66
14204;BME280;7185;51.854;6.622;2023-07-20T06:07:08;101186.09;;;22.14;66.86
14204;BME280;7185;51.854;6.622;2023-07-20T06:09:56;101184.31;;;21.99;66.93
14204;BME280;7185;51.854;6.622;2023-07-20T06:12:32;101183.81;;;21.92;66.74
14204;BME280;7185;51.854;6.622;2023-07-20T06:15:32;101197.41;;;21.87;66.90
14204;BME280;7185;51.854;6.622;2023-07-20T06:18:11;101188.28;;;21.75;66.98
14204;BME280;7185;51.854;6.622;2023-07-20T06:20:48;101202.91;;;21.68;66.01
14204;BME280;7185;51.854;6.622;2023-07-20T06:23:31;101198.09;;;21.59;66.74
14204;BME280;7185;51.854;6.622;2023-07-20T06:26:08;101205.50;;;21.70;66.47
14204;BME280;7185;51.854;6.622;2023-07-20T06:31:35;101213.09;;;21.77;67.38
14204;BME280;7185;51.854;6.622;2023-07-20T06:34:12;101210.50;;;21.76;66.88
14204;BME280;7185;51.854;6.622;2023-07-20T06:36:43;101215.91;;;21.41;68.51
14204;BME280;7185;51.854;6.622;2023-07-20T06:39:21;101210.09;;;21.50;69.27
14204;BME280;7185;51.854;6.622;2023-07-20T06:41:55;101213.94;;;21.62;68.47
14204;BME280;7185;51.854;6.622;2023-07-20T06:44:34;101209.63;;;21.59;67.66
14204;BME280;7185;51.854;6.622;2023-07-20T06:47:11;101202.91;;;21.84;66.50
14204;BME280;7185;51.854;6.622;2023-07-20T06:49:57;101213.00;;;21.79;66.22
14204;BME280;7185;51.854;6.622;2023-07-20T06:52:37;101209.28;;;21.97;66.12
14204;BME280;7185;51.854;6.622;2023-07-20T06:55:22;101205.13;;;22.40;65.70
14204;BME280;7185;51.854;6.622;2023-07-20T06:58:02;101205.75;;;22.59;64.83
14204;BME280;7185;51.854;6.622;2023-07-20T07:00:38;101204.34;;;22.68;63.23
14204;BME280;7185;51.854;6.622;2023-07-20T07:03:29;101202.38;;;22.86;62.70
14204;BME280;7185;51.854;6.622;2023-07-20T07:06:18;101207.84;;;23.14;61.82
14204;BME280;7185;51.854;6.622;2023-07-20T07:08:55;101208.75;;;23.29;61.56
14204;BME280;7185;51.854;6.622;2023-07-20T07:11:41;101211.22;;;23.17;60.92
14204;BME280;7185;51.854;6.622;2023-07-20T07:14:17;101207.50;;;23.49;60.39
14204;BME280;7185;51.854;6.622;2023-07-20T07:16:55;101215.03;;;23.71;56.84
14204;BME280;7185;51.854;6.622;2023-07-20T07:19:39;101219.06;;;23.35;58.23
14204;BME280;7185;51.854;6.622;2023-07-20T07:22:19;101216.63;;;23.01;58.74
14204;BME280;7185;51.854;6.622;2023-07-20T07:25:03;101215.44;;;22.91;59.85
14204;BME280;7185;51.854;6.622;2023-07-20T07:27:48;101221.50;;;23.09;59.76
14204;BME280;7185;51.854;6.622;2023-07-20T07:30:27;101220.47;;;23.26;60.35
14204;BME280;7185;51.854;6.622;2023-07-20T07:33:06;101222.38;;;23.10;58.44
14204;BME280;7185;51.854;6.622;2023-07-20T07:35:41;101227.84;;;23.37;58.62
14204;BME280;7185;51.854;6.622;2023-07-20T07:38:16;101229.97;;;23.46;59.77
14204;BME280;7185;51.854;6.622;2023-07-20T07:40:59;101223.63;;;23.62;56.70
14204;BME280;7185;51.854;6.622;2023-07-20T07:43:43;101236.31;;;24.01;56.33
14204;BME280;7185;51.854;6.622;2023-07-20T07:46:24;101235.84;;;23.80;56.83
14204;BME280;7185;51.854;6.622;2023-07-20T07:49:03;101240.47;;;23.93;56.35
14204;BME280;7185;51.854;6.622;2023-07-20T07:51:44;101238.66;;;23.50;57.22
14204;BME280;7185;51.854;6.622;2023-07-20T07:54:26;101243.22;;;23.48;56.33
14204;BME280;7185;51.854;6.622;2023-07-20T07:57:02;101243.03;;;23.65;55.69
14204;BME280;7185;51.854;6.622;2023-07-20T07:59:40;101248.66;;;24.04;55.34
14204;BME280;7185;51.854;6.622;2023-07-20T08:02:43;101248.72;;;24.17;54.19
14204;BME280;7185;51.854;6.622;2023-07-20T08:05:15;101250.28;;;24.34;53.05
14204;BME280;7185;51.854;6.622;2023-07-20T08:07:47;101249.03;;;24.53;52.85
14204;BME280;7185;51.854;6.622;2023-07-20T08:10:22;101251.19;;;24.47;52.39
14204;BME280;7185;51.854;6.622;2023-07-20T08:12:54;101249.97;;;24.66;50.25
14204;BME280;7185;51.854;6.622;2023-07-20T08:15:28;101249.59;;;23.88;49.72
14204;BME280;7185;51.854;6.622;2023-07-20T08:18:03;101245.59;;;23.81;50.05
14204;BME280;7185;51.854;6.622;2023-07-20T08:20:35;101255.50;;;24.08;50.58
14204;BME280;7185;51.854;6.622;2023-07-20T08:23:07;101248.06;;;24.13;51.28
14204;BME280;7185;51.854;6.622;2023-07-20T08:25:39;101248.28;;;23.96;50.06
14204;BME280;7185;51.854;6.622;2023-07-20T08:28:15;101253.59;;;24.10;49.19
14204;BME280;7185;51.854;6.622;2023-07-20T08:30:49;101242.84;;;24.52;50.07
14204;BME280;7185;51.854;6.622;2023-07-20T08:33:21;101246.56;;;25.03;49.74
14204;BME280;7185;51.854;6.622;2023-07-20T08:35:54;101263.34;;;25.32;48.76
14204;BME280;7185;51.854;6.622;2023-07-20T08:38:28;101258.72;;;25.47;46.65
14204;BME280;7185;51.854;6.622;2023-07-20T08:41:00;101253.88;;;25.65;44.29
14204;BME280;7185;51.854;6.622;2023-07-20T08:43:35;101263.34;;;25.32;45.60
14204;BME280;7185;51.854;6.622;2023-07-20T08:46:10;101261.00;;;25.40;43.80
14204;BME280;7185;51.854;6.622;2023-07-20T08:48:50;101263.53;;;25.03;44.48
14204;BME280;7185;51.854;6.622;2023-07-20T08:51:27;101261.94;;;25.26;45.83
14204;BME280;7185;51.854;6.622;2023-07-20T08:53:59;101253.25;;;25.49;41.99
14204;BME280;7185;51.854;6.622;2023-07-20T08:56:33;101258.00;;;25.95;46.12
14204;BME280;7185;51.854;6.622;2023-07-20T08:59:06;101263.97;;;25.61;45.94
14204;BME280;7185;51.854;6.622;2023-07-20T09:02:00;101259.63;;;25.85;40.89
14204;BME280;7185;51.854;6.622;2023-07-20T09:04:36;101266.06;;;25.95;41.16
14204;BME280;7185;51.854;6.622;2023-07-20T09:07:47;101257.13;;;26.07;39.84
14204;BME280;7185;51.854;6.622;2023-07-20T09:13:37;101249.53;;;26.25;42.28
14204;BME280;7185;51.854;6.622;2023-07-20T09:16:13;101246.00;;;26.96;42.82
14204;BME280;7185;51.854;6.622;2023-07-20T09:18:51;101248.06;;;27.51;40.46
14204;BME280;7185;51.854;6.622;2023-07-20T09:21:35;101236.78;;;27.68;37.46
14204;BME280;7185;51.854;6.622;2023-07-20T09:24:11;101237.53;;;27.59;36.61
14204;BME280;7185;51.854;6.622;2023-07-20T09:27:12;101247.03;;;27.75;38.14
14204;BME280;7185;51.854;6.622;2023-07-20T09:30:02;101242.53;;;27.52;36.72
14204;BME280;7185;51.854;6.622;2023-07-20T09:32:45;101247.56;;;27.57;38.03
14204;BME280;7185;51.854;6.622;2023-07-20T09:35:30;101254.19;;;26.83;39.68
14204;BME280;7185;51.854;6.622;2023-07-20T09:38:08;101257.16;;;26.67;38.86
14204;BME280;7185;51.854;6.622;2023-07-20T09:40:43;101260.44;;;25.98;40.42
14204;BME280;7185;51.854;6.622;2023-07-20T09:43:16;101256.34;;;26.18;42.56
14204;BME280;7185;51.854;6.622;2023-07-20T09:46:06;101258.00;;;26.32;39.64
14204;BME280;7185;51.854;6.622;2023-07-20T09:48:51;101257.84;;;26.82;39.18
14204;BME280;7185;51.854;6.622;2023-07-20T09:51:30;101251.00;;;27.59;40.09
14204;BME280;7185;51.854;6.622;2023-07-20T09:54:08;101247.00;;;28.09;38.49
14204;BME280;7185;51.854;6.622;2023-07-20T09:56:57;101233.81;;;28.71;36.75
14204;BME280;7185;51.854;6.622;2023-07-20T10:00:03;101235.69;;;29.01;36.28
14204;BME280;7185;51.854;6.622;2023-07-20T10:02:44;101240.09;;;28.27;35.94
14204;BME280;7185;51.854;6.622;2023-07-20T10:05:17;101223.06;;;27.60;35.98
14204;BME280;7185;51.854;6.622;2023-07-20T10:08:09;101226.03;;;27.57;37.59
14204;BME280;7185;51.854;6.622;2023-07-20T10:10:51;101229.94;;;27.64;38.57
14204;BME280;7185;51.854;6.622;2023-07-20T10:13:33;101223.72;;;27.41;35.15
14204;BME280;7185;51.854;6.622;2023-07-20T10:16:10;101227.72;;;27.47;35.12
14204;BME280;7185;51.854;6.622;2023-07-20T10:21:59;101224.81;;;28.17;35.60
14204;BME280;7185;51.854;6.622;2023-07-20T10:36:49;101223.06;;;27.15;36.25
14204;BME280;7185;51.854;6.622;2023-07-20T10:39:32;101222.81;;;27.63;35.39
14204;BME280;7185;51.854;6.622;2023-07-20T10:42:10;101216.09;;;27.69;34.55
14204;BME280;7185;51.854;6.622;2023-07-20T10:44:54;101209.78;;;27.91;36.96
14204;BME280;7185;51.854;6.622;2023-07-20T10:47:46;101215.00;;;27.49;34.08
14204;BME280;7185;51.854;6.622;2023-07-20T10:50:37;101214.16;;;28.04;33.05
14204;BME280;7185;51.854;6.622;2023-07-20T10:53:22;101203.69;;;27.78;36.36
14204;BME280;7185;51.854;6.622;2023-07-20T10:56:12;101202.50;;;28.47;33.56
14204;BME280;7185;51.854;6.622;2023-07-20T10:58:57;101201.16;;;28.74;33.68
14204;BME280;7185;51.854;6.622;2023-07-20T11:02:12;101201.16;;;28.74;32.36
14204;BME280;7185;51.854;6.622;2023-07-20T11:07:50;101195.34;;;29.00;31.00
14204;BME280;7185;51.854;6.622;2023-07-20T11:10:32;101197.09;;;27.71;30.94
14204;BME280;7185;51.854;6.622;2023-07-20T11:13:26;101194.41;;;28.47;32.47
14204;BME280;7185;51.854;6.622;2023-07-20T11:16:05;101203.00;;;29.25;30.34
14204;BME280;7185;51.854;6.622;2023-07-20T11:18:44;101190.16;;;29.99;30.91
14204;BME280;7185;51.854;6.622;2023-07-20T11:21:21;101186.28;;;30.31;30.31
14204;BME280;7185;51.854;6.622;2023-07-20T11:24:03;101183.75;;;30.69;28.78
14204;BME280;7185;51.854;6.622;2023-07-20T11:27:05;101183.88;;;31.25;29.31
14204;BME280;7185;51.854;6.622;2023-07-20T11:30:00;101179.22;;;31.35;27.41
14204;BME280;7185;51.854;6.622;2023-07-20T11:32:55;101175.13;;;30.93;29.24
14204;BME280;7185;51.854;6.622;2023-07-20T11:35:41;101171.75;;;31.75;29.47
14204;BME280;7185;51.854;6.622;2023-07-20T11:38:17;61638.69;;;-147.82;100.00
14204;BME280;7185;51.854;6.622;2023-07-20T11:41:10;61638.69;;;-147.82;100.00
14204;BME280;7185;51.854;6.622;2023-07-20T11:47:04;61638.69;;;-147.82;100.00
14204;BME280;7185;51.854;6.622;2023-07-20T11:49:40;61638.69;;;-147.82;100.00
14204;BME280;7185;51.854;6.622;2023-07-20T11:52:18;61638.69;;;-147.82;100.00
14204;BME280;7185;51.854;6.622;2023-07-20T11:55:01;61638.69;;;-147.82;100.00
14204;BME280;7185;51.854;6.622;2023-07-20T11:57:37;61638.69;;;-147.82;100.00
14204;BME280;7185;51.854;6.622;2023-07-20T12:00:18;61638.69;;;-147.82;100.00
14204;BME280;7185;51.854;6.622;2023-07-20T12:02:53;61638.69;;;-147.82;100.00
14204;BME280;7185;51.854;6.622;2023-07-20T12:05:26;61638.69;;;-147.82;100.00
14204;BME280;7185;51.854;6.622;2023-07-20T12:08:01;61638.69;;;-147.82;100.00
14204;BME280;7185;51.854;6.622;2023-07-20T12:10:45;61638.69;;;-147.82;100.00
14204;BME280;7185;51.854;6.622;2023-07-20T12:13:40;61638.69;;;-147.82;100.00
14204;BME280;7185;51.854;6.622;2023-07-20T12:16:16;61638.69;;;-147.82;100.00
14204;BME280;7185;51.854;6.622;2023-07-20T12:19:13;61638.69;;;-147.82;100.00
14204;BME280;7185;51.854;6.622;2023-07-20T12:22:01;61638.69;;;-147.82;100.00
14204;BME280;7185;51.854;6.622;2023-07-20T12:24:36;61638.69;;;-147.82;100.00
14204;BME280;7185;51.854;6.622;2023-07-20T12:27:08;61638.69;;;-147.82;100.00
14204;BME280;7185;51.854;6.622;2023-07-20T12:29:42;61638.69;;;-147.82;100.00
14204;BME280;7185;51.854;6.622;2023-07-20T12:32:19;61638.69;;;-147.82;100.00
14204;BME280;7185;51.854;6.622;2023-07-20T12:35:10;61638.69;;;-147.82;100.00
14204;BME280;7185;51.854;6.622;2023-07-20T12:38:00;61638.69;;;-147.82;100.00
14204;BME280;7185;51.854;6.622;2023-07-20T12:40:39;61638.69;;;-147.82;100.00
14204;BME280;7185;51.854;6.622;2023-07-20T12:43:12;61638.69;;;-147.82;100.00
14204;BME280;7185;51.854;6.622;2023-07-20T12:45:52;61638.69;;;-147.82;100.00
14204;BME280;7185;51.854;6.622;2023-07-20T12:48:24;61638.69;;;-147.82;100.00
14204;BME280;7185;51.854;6.622;2023-07-20T12:51:02;61638.69;;;-147.82;100.00
14204;BME280;7185;51.854;6.622;2023-07-20T12:53:37;61638.69;;;-147.82;100.00
14204;BME280;7185;51.854;6.622;2023-07-20T12:56:20;61638.69;;;-147.82;100.00
14204;BME280;7185;51.854;6.622;2023-07-20T12:59:14;61638.69;;;-147.82;100.00
14204;BME280;7185;51.854;6.622;2023-07-20T13:01:54;61638.69;;;-147.82;100.00
14204;BME280;7185;51.854;6.622;2023-07-20T13:07:36;61638.69;;;-147.82;100.00
14204;BME280;7185;51.854;6.622;2023-07-20T13:10:12;61638.69;;;-147.82;100.00
14204;BME280;7185;51.854;6.622;2023-07-20T13:12:46;101122.78;;;29.47;31.51
14204;BME280;7185;51.854;6.622;2023-07-20T13:15:29;101111.91;;;29.28;31.33
14204;BME280;7185;51.854;6.622;2023-07-20T13:18:05;101111.06;;;28.86;32.01
14204;BME280;7185;51.854;6.622;2023-07-20T13:20:50;101121.38;;;28.81;33.50
14204;BME280;7185;51.854;6.622;2023-07-20T13:23:29;101113.09;;;28.73;33.33
14204;BME280;7185;51.854;6.622;2023-07-20T13:26:05;101105.75;;;29.56;35.05
14204;BME280;7185;51.854;6.622;2023-07-20T13:28:39;101101.09;;;29.28;31.92
14204;BME280;7185;51.854;6.622;2023-07-20T13:31:12;101104.88;;;29.56;31.93
14204;BME280;7185;51.854;6.622;2023-07-20T13:33:49;101092.66;;;29.62;31.68
14204;BME280;7185;51.854;6.622;2023-07-20T13:36:33;101101.47;;;29.64;32.22
14204;BME280;7185;51.854;6.622;2023-07-20T13:39:06;101093.78;;;29.49;33.53
14204;BME280;7185;51.854;6.622;2023-07-20T13:41:54;101103.44;;;29.42;32.39
14204;BME280;7185;51.854;6.622;2023-07-20T13:44:34;101095.22;;;29.73;33.56
14204;BME280;7185;51.854;6.622;2023-07-20T13:47:13;101087.41;;;29.80;32.22
14204;BME280;7185;51.854;6.622;2023-07-20T13:49:48;101097.75;;;29.55;32.04
14204;BME280;7185;51.854;6.622;2023-07-20T13:52:25;101092.63;;;29.42;31.36
14204;BME280;7185;51.854;6.622;2023-07-20T13:55:08;101094.44;;;29.32;30.76
14204;BME280;7185;51.854;6.622;2023-07-20T13:57:56;101093.66;;;29.20;31.68
14204;BME280;7185;51.854;6.622;2023-07-20T14:00:32;101084.50;;;29.32;32.50
14204;BME280;7185;51.854;6.622;2023-07-20T14:05:51;101080.88;;;29.12;32.83
14204;BME280;7185;51.854;6.622;2023-07-20T14:11:41;101068.97;;;29.24;30.74
14204;BME280;7185;51.854;6.622;2023-07-20T14:14:33;101066.16;;;29.36;32.70
14204;BME280;7185;51.854;6.622;2023-07-20T14:17:17;101061.78;;;29.35;31.66
14204;BME280;7185;51.854;6.622;2023-07-20T14:20:05;101063.59;;;29.34;31.47
14204;BME280;7185;51.854;6.622;2023-07-20T14:22:41;101049.84;;;29.67;31.25
14204;BME280;7185;51.854;6.622;2023-07-20T14:25:29;101052.84;;;30.03;31.35
14204;BME280;7185;51.854;6.622;2023-07-20T14:28:05;101054.47;;;30.33;31.06